sensor_id;sensor_type;location;lat;lon;timestamp;P1;durP1;ratioP1;P2;durP2;ratioP2
37288;SDS011;23174;49.462;11.000;2022-12-07T00:00:42;0.70;;;0.70;;
37288;SDS011;23174;49.462;11.000;2022-12-07T00:02:42;1.20;;;1.05;;
37288;SDS011;23174;49.462;11.000;2022-12-07T00:04:43;4.15;;;2.85;;
37288;SDS011;23174;49.462;11.000;2022-12-07T00:06:44;2.90;;;2.50;;
37288;SDS011;23174;49.462;11.000;2022-12-07T00:08:47;2.85;;;2.65;;
37288;SDS011;23174;49.462;11.000;2022-12-07T00:10:48;3.97;;;2.97;;
37288;SDS011;23174;49.462;11.000;2022-12-07T00:12:48;2.85;;;2.65;;
37288;SDS011;23174;49.462;11.000;2022-12-07T00:14:50;2.78;;;2.58;;
37288;SDS011;23174;49.462;11.000;2022-12-07T00:16:50;3.20;;;3.00;;
37288;SDS011;23174;49.462;11.000;2022-12-07T00:18:51;2.97;;;2.78;;
37288;SDS011;23174;49.462;11.000;2022-12-07T00:20:52;3.25;;;3.05;;
37288;SDS011;23174;49.462;11.000;2022-12-07T00:22:53;3.03;;;2.83;;
37288;SDS011;23174;49.462;11.000;2022-12-07T00:24:53;3.10;;;2.90;;
37288;SDS011;23174;49.462;11.000;2022-12-07T00:26:54;2.85;;;2.65;;
37288;SDS011;23174;49.462;11.000;2022-12-07T00:28:55;4.18;;;3.13;;
37288;SDS011;23174;49.462;11.000;2022-12-07T00:31:05;3.47;;;3.28;;
37288;SDS011;23174;49.462;11.000;2022-12-07T00:33:07;2.90;;;2.70;;
37288;SDS011;23174;49.462;11.000;2022-12-07T00:35:08;3.22;;;3.03;;
37288;SDS011;23174;49.462;11.000;2022-12-07T00:37:08;2.92;;;2.72;;
37288;SDS011;23174;49.462;11.000;2022-12-07T00:39:09;3.30;;;3.10;;
37288;SDS011;23174;49.462;11.000;2022-12-07T00:41:12;4.00;;;3.20;;
37288;SDS011;23174;49.462;11.000;2022-12-07T00:43:14;3.25;;;3.05;;
37288;SDS011;23174;49.462;11.000;2022-12-07T00:45:15;3.33;;;3.13;;
37288;SDS011;23174;49.462;11.000;2022-12-07T00:47:15;3.33;;;3.05;;
37288;SDS011;23174;49.462;11.000;2022-12-07T00:49:16;2.97;;;2.78;;
37288;SDS011;23174;49.462;11.000;2022-12-07T00:51:18;3.30;;;3.00;;
37288;SDS011;23174;49.462;11.000;2022-12-07T00:53:19;3.40;;;3.10;;
37288;SDS011;23174;49.462;11.000;2022-12-07T00:55:20;3.45;;;3.25;;
37288;SDS011;23174;49.462;11.000;2022-12-07T00:57:21;3.00;;;2.70;;
37288;SDS011;23174;49.462;11.000;2022-12-07T00:59:21;3.55;;;3.25;;
37288;SDS011;23174;49.462;11.000;2022-12-07T01:01:22;2.60;;;2.40;;
37288;SDS011;23174;49.462;11.000;2022-12-07T01:03:24;2.65;;;2.55;;
37288;SDS011;23174;49.462;11.000;2022-12-07T01:05:24;3.50;;;3.20;;
37288;SDS011;23174;49.462;11.000;2022-12-07T01:07:25;3.10;;;2.90;;
37288;SDS011;23174;49.462;11.000;2022-12-07T01:09:25;3.25;;;3.05;;
37288;SDS011;23174;49.462;11.000;2022-12-07T01:11:27;3.30;;;3.10;;
37288;SDS011;23174;49.462;11.000;2022-12-07T01:13:30;3.40;;;3.20;;
37288;SDS011;23174;49.462;11.000;2022-12-07T01:15:31;3.67;;;3.40;;
37288;SDS011;23174;49.462;11.000;2022-12-07T01:17:31;3.38;;;3.17;;
37288;SDS011;23174;49.462;11.000;2022-12-07T01:19:32;3.83;;;3.63;;
37288;SDS011;23174;49.462;11.000;2022-12-07T01:21:33;4.28;;;3.53;;
37288;SDS011;23174;49.462;11.000;2022-12-07T01:23:35;3.20;;;3.00;;
37288;SDS011;23174;49.462;11.000;2022-12-07T01:25:36;4.10;;;3.47;;
37288;SDS011;23174;49.462;11.000;2022-12-07T01:27:37;3.67;;;3.38;;
37288;SDS011;23174;49.462;11.000;2022-12-07T01:29:37;3.80;;;3.50;;
37288;SDS011;23174;49.462;11.000;2022-12-07T01:31:38;3.50;;;3.30;;
37288;SDS011;23174;49.462;11.000;2022-12-07T01:33:39;3.45;;;3.25;;
37288;SDS011;23174;49.462;11.000;2022-12-07T01:35:39;3.25;;;3.05;;
37288;SDS011;23174;49.462;11.000;2022-12-07T01:37:40;3.42;;;3.13;;
37288;SDS011;23174;49.462;11.000;2022-12-07T01:39:40;4.88;;;3.42;;
37288;SDS011;23174;49.462;11.000;2022-12-07T01:41:41;3.95;;;3.65;;
37288;SDS011;23174;49.462;11.000;2022-12-07T01:46:14;3.70;;;3.50;;
37288;SDS011;23174;49.462;11.000;2022-12-07T01:48:16;3.67;;;3.47;;
37288;SDS011;23174;49.462;11.000;2022-12-07T01:50:19;4.18;;;3.80;;
37288;SDS011;23174;49.462;11.000;2022-12-07T01:52:30;3.70;;;3.50;;
37288;SDS011;23174;49.462;11.000;2022-12-07T01:54:33;3.72;;;3.53;;
37288;SDS011;23174;49.462;11.000;2022-12-07T01:56:34;3.90;;;3.60;;
37288;SDS011;23174;49.462;11.000;2022-12-07T01:58:37;3.88;;;3.58;;
37288;SDS011;23174;49.462;11.000;2022-12-07T02:00:37;4.10;;;3.75;;
37288;SDS011;23174;49.462;11.000;2022-12-07T02:02:42;4.35;;;3.95;;
37288;SDS011;23174;49.462;11.000;2022-12-07T02:04:56;4.47;;;4.18;;
37288;SDS011;23174;49.462;11.000;2022-12-07T02:06:58;3.33;;;3.13;;
37288;SDS011;23174;49.462;11.000;2022-12-07T02:08:59;4.30;;;4.00;;
37288;SDS011;23174;49.462;11.000;2022-12-07T02:11:00;4.13;;;3.83;;
37288;SDS011;23174;49.462;11.000;2022-12-07T02:15:15;4.32;;;4.03;;
37288;SDS011;23174;49.462;11.000;2022-12-07T02:17:20;5.40;;;3.90;;
37288;SDS011;23174;49.462;11.000;2022-12-07T02:19:37;4.22;;;3.92;;
37288;SDS011;23174;49.462;11.000;2022-12-07T02:31:12;4.63;;;4.22;;
37288;SDS011;23174;49.462;11.000;2022-12-07T02:33:28;5.00;;;4.60;;
37288;SDS011;23174;49.462;11.000;2022-12-07T02:35:34;4.57;;;4.18;;
37288;SDS011;23174;49.462;11.000;2022-12-07T02:37:51;6.30;;;5.07;;
37288;SDS011;23174;49.462;11.000;2022-12-07T02:42:49;5.20;;;4.80;;
37288;SDS011;23174;49.462;11.000;2022-12-07T02:44:55;5.00;;;4.70;;
37288;SDS011;23174;49.462;11.000;2022-12-07T02:47:03;5.10;;;4.80;;
37288;SDS011;23174;49.462;11.000;2022-12-07T02:49:07;4.70;;;4.30;;
37288;SDS011;23174;49.462;11.000;2022-12-07T02:51:09;5.30;;;4.90;;
37288;SDS011;23174;49.462;11.000;2022-12-07T02:53:31;5.28;;;4.78;;
37288;SDS011;23174;49.462;11.000;2022-12-07T02:55:37;5.53;;;4.30;;
37288;SDS011;23174;49.462;11.000;2022-12-07T03:00:01;4.88;;;4.57;;
37288;SDS011;23174;49.462;11.000;2022-12-07T03:02:10;5.77;;;5.37;;
37288;SDS011;23174;49.462;11.000;2022-12-07T03:04:32;6.15;;;5.65;;
37288;SDS011;23174;49.462;11.000;2022-12-07T03:06:46;5.25;;;4.85;;
37288;SDS011;23174;49.462;11.000;2022-12-07T03:09:14;4.82;;;4.50;;
37288;SDS011;23174;49.462;11.000;2022-12-07T03:11:33;4.88;;;4.55;;
37288;SDS011;23174;49.462;11.000;2022-12-07T03:16:16;5.47;;;4.97;;
37288;SDS011;23174;49.462;11.000;2022-12-07T03:18:28;4.80;;;4.50;;
37288;SDS011;23174;49.462;11.000;2022-12-07T03:20:32;5.60;;;5.20;;
37288;SDS011;23174;49.462;11.000;2022-12-07T03:22:35;4.63;;;4.32;;
37288;SDS011;23174;49.462;11.000;2022-12-07T03:24:47;5.20;;;4.80;;
37288;SDS011;23174;49.462;11.000;2022-12-07T03:26:53;5.57;;;5.18;;
37288;SDS011;23174;49.462;11.000;2022-12-07T03:29:00;5.53;;;5.13;;
37288;SDS011;23174;49.462;11.000;2022-12-07T03:31:11;5.43;;;4.93;;
37288;SDS011;23174;49.462;11.000;2022-12-07T03:33:21;5.72;;;5.22;;
37288;SDS011;23174;49.462;11.000;2022-12-07T03:35:27;5.50;;;5.10;;
37288;SDS011;23174;49.462;11.000;2022-12-07T03:38:06;5.45;;;5.05;;
37288;SDS011;23174;49.462;11.000;2022-12-07T03:42:19;5.25;;;4.85;;
37288;SDS011;23174;49.462;11.000;2022-12-07T03:44:20;5.28;;;4.97;;
37288;SDS011;23174;49.462;11.000;2022-12-07T03:56:11;5.63;;;5.25;;
37288;SDS011;23174;49.462;11.000;2022-12-07T03:58:14;5.72;;;5.32;;
37288;SDS011;23174;49.462;11.000;2022-12-07T04:00:17;5.65;;;5.25;;
37288;SDS011;23174;49.462;11.000;2022-12-07T04:02:19;5.65;;;5.25;;
37288;SDS011;23174;49.462;11.000;2022-12-07T04:04:20;6.22;;;5.72;;
37288;SDS011;23174;49.462;11.000;2022-12-07T04:06:22;6.43;;;5.93;;
37288;SDS011;23174;49.462;11.000;2022-12-07T04:08:22;5.93;;;5.47;;
37288;SDS011;23174;49.462;11.000;2022-12-07T04:10:23;6.45;;;5.85;;
37288;SDS011;23174;49.462;11.000;2022-12-07T04:12:23;5.63;;;5.22;;
37288;SDS011;23174;49.462;11.000;2022-12-07T04:14:24;6.35;;;5.85;;
37288;SDS011;23174;49.462;11.000;2022-12-07T04:16:24;5.88;;;5.47;;
37288;SDS011;23174;49.462;11.000;2022-12-07T04:18:25;5.78;;;5.38;;
37288;SDS011;23174;49.462;11.000;2022-12-07T04:20:26;6.18;;;5.57;;
37288;SDS011;23174;49.462;11.000;2022-12-07T04:22:26;5.40;;;5.00;;
37288;SDS011;23174;49.462;11.000;2022-12-07T04:24:27;5.18;;;4.85;;
37288;SDS011;23174;49.462;11.000;2022-12-07T04:26:27;6.15;;;4.95;;
37288;SDS011;23174;49.462;11.000;2022-12-07T04:28:28;6.13;;;5.63;;
37288;SDS011;23174;49.462;11.000;2022-12-07T04:30:29;5.85;;;5.35;;
37288;SDS011;23174;49.462;11.000;2022-12-07T04:32:29;5.78;;;5.35;;
37288;SDS011;23174;49.462;11.000;2022-12-07T04:34:30;6.25;;;5.75;;
37288;SDS011;23174;49.462;11.000;2022-12-07T04:36:31;5.97;;;5.57;;
37288;SDS011;23174;49.462;11.000;2022-12-07T04:38:32;6.13;;;5.55;;
37288;SDS011;23174;49.462;11.000;2022-12-07T04:40:33;5.53;;;5.13;;
37288;SDS011;23174;49.462;11.000;2022-12-07T04:42:34;6.25;;;5.75;;
37288;SDS011;23174;49.462;11.000;2022-12-07T04:44:34;6.03;;;5.53;;
37288;SDS011;23174;49.462;11.000;2022-12-07T04:46:35;6.00;;;5.60;;
37288;SDS011;23174;49.462;11.000;2022-12-07T04:48:35;7.00;;;6.40;;
37288;SDS011;23174;49.462;11.000;2022-12-07T04:50:36;6.57;;;6.07;;
37288;SDS011;23174;49.462;11.000;2022-12-07T04:52:38;6.72;;;6.18;;
37288;SDS011;23174;49.462;11.000;2022-12-07T04:54:38;7.80;;;6.82;;
37288;SDS011;23174;49.462;11.000;2022-12-07T04:56:39;6.32;;;5.82;;
37288;SDS011;23174;49.462;11.000;2022-12-07T04:58:40;6.80;;;6.20;;
37288;SDS011;23174;49.462;11.000;2022-12-07T05:00:41;7.30;;;6.70;;
37288;SDS011;23174;49.462;11.000;2022-12-07T05:02:42;7.25;;;6.65;;
37288;SDS011;23174;49.462;11.000;2022-12-07T05:04:43;6.63;;;6.13;;
37288;SDS011;23174;49.462;11.000;2022-12-07T05:06:43;6.60;;;6.10;;
37288;SDS011;23174;49.462;11.000;2022-12-07T05:08:44;7.25;;;6.72;;
37288;SDS011;23174;49.462;11.000;2022-12-07T05:10:45;6.43;;;5.85;;
37288;SDS011;23174;49.462;11.000;2022-12-07T05:12:45;6.57;;;6.07;;
37288;SDS011;23174;49.462;11.000;2022-12-07T05:14:46;7.35;;;6.57;;
37288;SDS011;23174;49.462;11.000;2022-12-07T05:16:48;6.70;;;6.30;;
37288;SDS011;23174;49.462;11.000;2022-12-07T05:18:50;7.18;;;6.68;;
37288;SDS011;23174;49.462;11.000;2022-12-07T05:20:51;7.47;;;6.88;;
37288;SDS011;23174;49.462;11.000;2022-12-07T05:22:52;6.88;;;6.18;;
37288;SDS011;23174;49.462;11.000;2022-12-07T05:24:52;8.23;;;7.43;;
37288;SDS011;23174;49.462;11.000;2022-12-07T05:26:54;8.02;;;7.30;;
37288;SDS011;23174;49.462;11.000;2022-12-07T05:28:55;8.00;;;7.30;;
37288;SDS011;23174;49.462;11.000;2022-12-07T05:30:57;7.72;;;7.03;;
37288;SDS011;23174;49.462;11.000;2022-12-07T05:32:58;7.03;;;6.35;;
37288;SDS011;23174;49.462;11.000;2022-12-07T05:34:58;8.07;;;6.95;;
37288;SDS011;23174;49.462;11.000;2022-12-07T05:36:59;7.68;;;7.13;;
37288;SDS011;23174;49.462;11.000;2022-12-07T05:38:59;7.70;;;7.10;;
37288;SDS011;23174;49.462;11.000;2022-12-07T05:41:04;11.27;;;7.55;;
37288;SDS011;23174;49.462;11.000;2022-12-07T05:43:06;8.35;;;7.65;;
37288;SDS011;23174;49.462;11.000;2022-12-07T05:45:07;8.60;;;7.45;;
37288;SDS011;23174;49.462;11.000;2022-12-07T05:47:09;7.85;;;7.15;;
37288;SDS011;23174;49.462;11.000;2022-12-07T05:49:10;9.18;;;7.82;;
37288;SDS011;23174;49.462;11.000;2022-12-07T05:51:11;8.05;;;7.38;;
37288;SDS011;23174;49.462;11.000;2022-12-07T05:53:11;14.00;;;7.63;;
37288;SDS011;23174;49.462;11.000;2022-12-07T05:55:12;8.57;;;7.78;;
37288;SDS011;23174;49.462;11.000;2022-12-07T05:57:13;8.93;;;8.23;;
37288;SDS011;23174;49.462;11.000;2022-12-07T05:59:13;8.90;;;8.18;;
37288;SDS011;23174;49.462;11.000;2022-12-07T06:01:24;8.75;;;7.95;;
37288;SDS011;23174;49.462;11.000;2022-12-07T06:03:25;9.25;;;8.40;;
37288;SDS011;23174;49.462;11.000;2022-12-07T06:05:25;9.70;;;8.82;;
37288;SDS011;23174;49.462;11.000;2022-12-07T06:07:26;9.50;;;8.60;;
37288;SDS011;23174;49.462;11.000;2022-12-07T06:09:27;7.97;;;7.38;;
37288;SDS011;23174;49.462;11.000;2022-12-07T06:11:28;8.23;;;7.63;;
37288;SDS011;23174;49.462;11.000;2022-12-07T06:13:47;8.75;;;8.02;;
37288;SDS011;23174;49.462;11.000;2022-12-07T06:15:48;8.93;;;8.23;;
37288;SDS011;23174;49.462;11.000;2022-12-07T06:17:49;9.18;;;8.38;;
37288;SDS011;23174;49.462;11.000;2022-12-07T06:19:49;9.25;;;8.40;;
37288;SDS011;23174;49.462;11.000;2022-12-07T06:21:50;8.90;;;8.18;;
37288;SDS011;23174;49.462;11.000;2022-12-07T06:23:51;9.52;;;8.63;;
37288;SDS011;23174;49.462;11.000;2022-12-07T06:25:52;9.43;;;8.52;;
37288;SDS011;23174;49.462;11.000;2022-12-07T06:27:52;9.90;;;8.52;;
37288;SDS011;23174;49.462;11.000;2022-12-07T06:29:55;9.35;;;8.57;;
37288;SDS011;23174;49.462;11.000;2022-12-07T06:31:55;9.45;;;8.65;;
37288;SDS011;23174;49.462;11.000;2022-12-07T06:33:59;9.68;;;8.88;;
37288;SDS011;23174;49.462;11.000;2022-12-07T06:36:01;9.43;;;8.63;;
37288;SDS011;23174;49.462;11.000;2022-12-07T06:38:02;10.20;;;9.23;;
37288;SDS011;23174;49.462;11.000;2022-12-07T06:40:02;10.65;;;9.75;;
37288;SDS011;23174;49.462;11.000;2022-12-07T06:42:04;10.23;;;9.32;;
37288;SDS011;23174;49.462;11.000;2022-12-07T06:44:05;11.30;;;10.05;;
37288;SDS011;23174;49.462;11.000;2022-12-07T06:46:06;10.98;;;9.13;;
37288;SDS011;23174;49.462;11.000;2022-12-07T06:48:06;9.90;;;9.05;;
37288;SDS011;23174;49.462;11.000;2022-12-07T06:50:07;9.73;;;8.85;;
37288;SDS011;23174;49.462;11.000;2022-12-07T06:52:08;9.70;;;8.77;;
37288;SDS011;23174;49.462;11.000;2022-12-07T06:54:09;9.50;;;8.65;;
37288;SDS011;23174;49.462;11.000;2022-12-07T06:56:11;9.68;;;8.77;;
37288;SDS011;23174;49.462;11.000;2022-12-07T06:58:11;9.32;;;8.52;;
37288;SDS011;23174;49.462;11.000;2022-12-07T07:00:12;9.25;;;8.50;;
37288;SDS011;23174;49.462;11.000;2022-12-07T07:02:13;10.30;;;9.30;;
37288;SDS011;23174;49.462;11.000;2022-12-07T07:04:13;10.45;;;9.40;;
37288;SDS011;23174;49.462;11.000;2022-12-07T07:06:14;9.70;;;8.90;;
37288;SDS011;23174;49.462;11.000;2022-12-07T07:08:15;9.80;;;9.00;;
37288;SDS011;23174;49.462;11.000;2022-12-07T07:10:16;9.75;;;8.88;;
37288;SDS011;23174;49.462;11.000;2022-12-07T07:12:16;9.15;;;8.25;;
37288;SDS011;23174;49.462;11.000;2022-12-07T07:14:17;10.23;;;9.32;;
37288;SDS011;23174;49.462;11.000;2022-12-07T07:16:19;8.77;;;8.07;;
37288;SDS011;23174;49.462;11.000;2022-12-07T07:18:19;9.90;;;9.10;;
37288;SDS011;23174;49.462;11.000;2022-12-07T07:20:20;9.18;;;8.38;;
37288;SDS011;23174;49.462;11.000;2022-12-07T07:22:20;9.98;;;9.05;;
37288;SDS011;23174;49.462;11.000;2022-12-07T07:24:21;9.48;;;8.68;;
37288;SDS011;23174;49.462;11.000;2022-12-07T07:26:22;9.07;;;8.18;;
37288;SDS011;23174;49.462;11.000;2022-12-07T07:28:22;9.55;;;8.77;;
37288;SDS011;23174;49.462;11.000;2022-12-07T07:30:23;9.43;;;8.63;;
37288;SDS011;23174;49.462;11.000;2022-12-07T07:32:24;9.43;;;8.52;;
37288;SDS011;23174;49.462;11.000;2022-12-07T07:34:25;9.27;;;8.48;;
37288;SDS011;23174;49.462;11.000;2022-12-07T07:36:25;9.80;;;9.00;;
37288;SDS011;23174;49.462;11.000;2022-12-07T07:38:26;11.05;;;10.05;;
37288;SDS011;23174;49.462;11.000;2022-12-07T07:40:27;10.38;;;9.40;;
37288;SDS011;23174;49.462;11.000;2022-12-07T07:42:30;10.50;;;9.60;;
37288;SDS011;23174;49.462;11.000;2022-12-07T07:44:31;1.58;;;1.48;;
37288;SDS011;23174;49.462;11.000;2022-12-07T07:46:32;2.05;;;1.85;;
37288;SDS011;23174;49.462;11.000;2022-12-07T07:48:33;1.63;;;1.52;;
37288;SDS011;23174;49.462;11.000;2022-12-07T07:50:33;2.20;;;1.65;;
37288;SDS011;23174;49.462;11.000;2022-12-07T07:52:34;2.85;;;1.92;;
37288;SDS011;23174;49.462;11.000;2022-12-07T07:54:35;2.20;;;1.83;;
37288;SDS011;23174;49.462;11.000;2022-12-07T07:56:35;2.38;;;1.83;;
37288;SDS011;23174;49.462;11.000;2022-12-07T07:58:36;0.82;;;0.82;;
37288;SDS011;23174;49.462;11.000;2022-12-07T08:00:36;2.28;;;1.10;;
37288;SDS011;23174;49.462;11.000;2022-12-07T08:02:37;1.23;;;1.15;;
37288;SDS011;23174;49.462;11.000;2022-12-07T08:04:38;0.50;;;0.50;;
37288;SDS011;23174;49.462;11.000;2022-12-07T08:06:38;1.27;;;0.80;;
37288;SDS011;23174;49.462;11.000;2022-12-07T08:08:39;0.73;;;0.68;;
37288;SDS011;23174;49.462;11.000;2022-12-07T08:10:39;10.23;;;9.23;;
37288;SDS011;23174;49.462;11.000;2022-12-07T08:12:41;10.70;;;9.70;;
37288;SDS011;23174;49.462;11.000;2022-12-07T08:15:06;10.05;;;9.18;;
37288;SDS011;23174;49.462;11.000;2022-12-07T08:17:06;9.95;;;9.00;;
37288;SDS011;23174;49.462;11.000;2022-12-07T08:19:07;11.35;;;9.82;;
37288;SDS011;23174;49.462;11.000;2022-12-07T08:21:09;10.65;;;9.68;;
37288;SDS011;23174;49.462;11.000;2022-12-07T08:23:12;12.23;;;9.93;;
37288;SDS011;23174;49.462;11.000;2022-12-07T08:25:13;10.05;;;9.05;;
37288;SDS011;23174;49.462;11.000;2022-12-07T08:27:14;9.35;;;8.55;;
37288;SDS011;23174;49.462;11.000;2022-12-07T08:29:14;10.05;;;8.98;;
37288;SDS011;23174;49.462;11.000;2022-12-07T08:31:16;9.32;;;8.52;;
37288;SDS011;23174;49.462;11.000;2022-12-07T08:33:18;9.23;;;8.38;;
37288;SDS011;23174;49.462;11.000;2022-12-07T08:35:19;10.05;;;9.05;;
37288;SDS011;23174;49.462;11.000;2022-12-07T08:37:21;9.50;;;8.60;;
37288;SDS011;23174;49.462;11.000;2022-12-07T08:39:21;9.63;;;8.82;;
37288;SDS011;23174;49.462;11.000;2022-12-07T08:41:22;9.75;;;8.75;;
37288;SDS011;23174;49.462;11.000;2022-12-07T08:43:22;9.57;;;8.52;;
37288;SDS011;23174;49.462;11.000;2022-12-07T08:45:23;8.68;;;7.97;;
37288;SDS011;23174;49.462;11.000;2022-12-07T08:47:24;8.27;;;7.57;;
37288;SDS011;23174;49.462;11.000;2022-12-07T08:49:32;8.63;;;7.93;;
37288;SDS011;23174;49.462;11.000;2022-12-07T08:51:39;8.38;;;7.68;;
37288;SDS011;23174;49.462;11.000;2022-12-07T08:53:41;8.35;;;7.65;;
37288;SDS011;23174;49.462;11.000;2022-12-07T08:55:44;8.02;;;7.32;;
37288;SDS011;23174;49.462;11.000;2022-12-07T08:57:46;8.88;;;8.07;;
37288;SDS011;23174;49.462;11.000;2022-12-07T08:59:47;7.97;;;7.28;;
37288;SDS011;23174;49.462;11.000;2022-12-07T09:01:48;8.25;;;7.35;;
37288;SDS011;23174;49.462;11.000;2022-12-07T09:03:48;8.05;;;7.38;;
37288;SDS011;23174;49.462;11.000;2022-12-07T09:05:49;9.52;;;8.68;;
37288;SDS011;23174;49.462;11.000;2022-12-07T09:07:51;8.82;;;7.93;;
37288;SDS011;23174;49.462;11.000;2022-12-07T09:09:56;8.27;;;7.50;;
37288;SDS011;23174;49.462;11.000;2022-12-07T09:11:57;7.63;;;7.03;;
37288;SDS011;23174;49.462;11.000;2022-12-07T09:13:58;8.15;;;7.45;;
37288;SDS011;23174;49.462;11.000;2022-12-07T09:15:58;7.75;;;6.97;;
37288;SDS011;23174;49.462;11.000;2022-12-07T09:17:59;7.80;;;7.15;;
37288;SDS011;23174;49.462;11.000;2022-12-07T09:19:59;8.23;;;7.53;;
37288;SDS011;23174;49.462;11.000;2022-12-07T09:22:01;7.50;;;6.95;;
37288;SDS011;23174;49.462;11.000;2022-12-07T09:24:01;7.25;;;6.65;;
37288;SDS011;23174;49.462;11.000;2022-12-07T09:26:03;7.93;;;7.13;;
37288;SDS011;23174;49.462;11.000;2022-12-07T09:28:04;10.05;;;6.80;;
37288;SDS011;23174;49.462;11.000;2022-12-07T09:30:05;6.35;;;5.85;;
37288;SDS011;23174;49.462;11.000;2022-12-07T09:32:06;7.75;;;7.05;;
37288;SDS011;23174;49.462;11.000;2022-12-07T09:34:07;7.07;;;6.47;;
37288;SDS011;23174;49.462;11.000;2022-12-07T09:36:07;7.50;;;6.90;;
37288;SDS011;23174;49.462;11.000;2022-12-07T09:38:09;7.35;;;6.78;;
37288;SDS011;23174;49.462;11.000;2022-12-07T09:40:11;6.35;;;5.75;;
37288;SDS011;23174;49.462;11.000;2022-12-07T09:42:24;8.32;;;6.78;;
37288;SDS011;23174;49.462;11.000;2022-12-07T09:44:34;6.57;;;6.07;;
37288;SDS011;23174;49.462;11.000;2022-12-07T09:46:39;7.85;;;7.18;;
37288;SDS011;23174;49.462;11.000;2022-12-07T09:48:42;6.53;;;6.03;;
37288;SDS011;23174;49.462;11.000;2022-12-07T09:50:43;6.53;;;5.85;;
37288;SDS011;23174;49.462;11.000;2022-12-07T09:52:45;6.88;;;6.38;;
37288;SDS011;23174;49.462;11.000;2022-12-07T09:54:48;6.90;;;6.30;;
37288;SDS011;23174;49.462;11.000;2022-12-07T09:56:50;5.80;;;5.40;;
37288;SDS011;23174;49.462;11.000;2022-12-07T09:58:53;6.35;;;5.85;;
37288;SDS011;23174;49.462;11.000;2022-12-07T10:01:01;6.50;;;5.90;;
37288;SDS011;23174;49.462;11.000;2022-12-07T10:03:11;6.28;;;5.80;;
37288;SDS011;23174;49.462;11.000;2022-12-07T10:05:16;5.93;;;5.43;;
37288;SDS011;23174;49.462;11.000;2022-12-07T10:07:21;5.55;;;5.15;;
37288;SDS011;23174;49.462;11.000;2022-12-07T10:09:21;5.82;;;5.38;;
37288;SDS011;23174;49.462;11.000;2022-12-07T10:11:22;5.50;;;5.05;;
37288;SDS011;23174;49.462;11.000;2022-12-07T10:13:36;5.65;;;5.25;;
37288;SDS011;23174;49.462;11.000;2022-12-07T10:15:56;6.65;;;5.95;;
37288;SDS011;23174;49.462;11.000;2022-12-07T10:17:57;5.90;;;5.40;;
37288;SDS011;23174;49.462;11.000;2022-12-07T10:20:14;6.25;;;5.65;;
37288;SDS011;23174;49.462;11.000;2022-12-07T10:22:23;6.22;;;5.18;;
37288;SDS011;23174;49.462;11.000;2022-12-07T10:24:23;5.57;;;5.18;;
37288;SDS011;23174;49.462;11.000;2022-12-07T10:26:32;6.10;;;5.60;;
37288;SDS011;23174;49.462;11.000;2022-12-07T10:28:35;6.65;;;6.15;;
37288;SDS011;23174;49.462;11.000;2022-12-07T10:32:56;5.53;;;5.13;;
37288;SDS011;23174;49.462;11.000;2022-12-07T10:35:15;6.00;;;5.57;;
37288;SDS011;23174;49.462;11.000;2022-12-07T10:37:18;5.88;;;5.43;;
37288;SDS011;23174;49.462;11.000;2022-12-07T10:39:21;5.63;;;5.13;;
37288;SDS011;23174;49.462;11.000;2022-12-07T10:41:22;6.18;;;5.68;;
37288;SDS011;23174;49.462;11.000;2022-12-07T10:43:23;6.30;;;5.80;;
37288;SDS011;23174;49.462;11.000;2022-12-07T10:45:24;5.63;;;5.22;;
37288;SDS011;23174;49.462;11.000;2022-12-07T10:47:26;5.25;;;4.88;;
37288;SDS011;23174;49.462;11.000;2022-12-07T10:52:08;5.38;;;5.03;;
37288;SDS011;23174;49.462;11.000;2022-12-07T10:57:19;5.40;;;5.00;;
37288;SDS011;23174;49.462;11.000;2022-12-07T10:59:33;6.85;;;5.28;;
37288;SDS011;23174;49.462;11.000;2022-12-07T11:01:57;6.15;;;5.65;;
37288;SDS011;23174;49.462;11.000;2022-12-07T11:06:35;5.50;;;5.10;;
37288;SDS011;23174;49.462;11.000;2022-12-07T11:08:47;5.72;;;5.32;;
37288;SDS011;23174;49.462;11.000;2022-12-07T11:11:50;5.30;;;4.90;;
37288;SDS011;23174;49.462;11.000;2022-12-07T11:18:28;5.90;;;5.50;;
37288;SDS011;23174;49.462;11.000;2022-12-07T11:23:13;7.03;;;6.32;;
37288;SDS011;23174;49.462;11.000;2022-12-07T11:25:39;6.78;;;6.28;;
37288;SDS011;23174;49.462;11.000;2022-12-07T11:28:00;6.38;;;5.78;;
37288;SDS011;23174;49.462;11.000;2022-12-07T11:30:17;5.18;;;4.78;;
37288;SDS011;23174;49.462;11.000;2022-12-07T11:35:22;7.10;;;6.40;;
37288;SDS011;23174;49.462;11.000;2022-12-07T11:37:25;6.70;;;6.10;;
37288;SDS011;23174;49.462;11.000;2022-12-07T11:39:35;6.15;;;5.72;;
37288;SDS011;23174;49.462;11.000;2022-12-07T11:41:39;5.90;;;5.43;;
37288;SDS011;23174;49.462;11.000;2022-12-07T11:46:06;6.45;;;5.93;;
37288;SDS011;23174;49.462;11.000;2022-12-07T11:52:47;6.97;;;6.18;;
37288;SDS011;23174;49.462;11.000;2022-12-07T11:54:53;6.63;;;6.07;;
37288;SDS011;23174;49.462;11.000;2022-12-07T11:56:54;6.45;;;5.85;;
37288;SDS011;23174;49.462;11.000;2022-12-07T11:58:58;6.40;;;5.90;;
37288;SDS011;23174;49.462;11.000;2022-12-07T12:03:20;6.20;;;5.70;;
37288;SDS011;23174;49.462;11.000;2022-12-07T12:05:30;6.15;;;5.65;;
37288;SDS011;23174;49.462;11.000;2022-12-07T12:07:30;6.00;;;5.50;;
37288;SDS011;23174;49.462;11.000;2022-12-07T12:09:35;6.05;;;5.65;;
37288;SDS011;23174;49.462;11.000;2022-12-07T12:21:18;6.20;;;5.70;;
37288;SDS011;23174;49.462;11.000;2022-12-07T12:27:27;5.85;;;5.35;;
37288;SDS011;23174;49.462;11.000;2022-12-07T12:29:39;7.53;;;6.80;;
37288;SDS011;23174;49.462;11.000;2022-12-07T12:31:41;7.45;;;6.25;;
37288;SDS011;23174;49.462;11.000;2022-12-07T12:33:43;7.95;;;5.72;;
37288;SDS011;23174;49.462;11.000;2022-12-07T12:35:46;6.10;;;5.50;;
37288;SDS011;23174;49.462;11.000;2022-12-07T12:38:26;5.78;;;5.35;;
37288;SDS011;23174;49.462;11.000;2022-12-07T12:42:43;6.38;;;5.95;;
37288;SDS011;23174;49.462;11.000;2022-12-07T12:45:05;5.97;;;5.47;;
37288;SDS011;23174;49.462;11.000;2022-12-07T12:47:51;5.75;;;5.25;;
37288;SDS011;23174;49.462;11.000;2022-12-07T12:54:59;6.15;;;5.65;;
37288;SDS011;23174;49.462;11.000;2022-12-07T13:05:18;5.57;;;5.18;;
37288;SDS011;23174;49.462;11.000;2022-12-07T13:07:10;10.45;;;5.45;;
37288;SDS011;23174;49.462;11.000;2022-12-07T13:09:20;6.10;;;5.50;;
37288;SDS011;23174;49.462;11.000;2022-12-07T13:11:36;8.63;;;5.70;;
37288;SDS011;23174;49.462;11.000;2022-12-07T13:13:41;6.15;;;5.65;;
37288;SDS011;23174;49.462;11.000;2022-12-07T13:15:47;5.40;;;4.93;;
37288;SDS011;23174;49.462;11.000;2022-12-07T13:17:55;5.63;;;5.13;;
37288;SDS011;23174;49.462;11.000;2022-12-07T13:20:04;6.00;;;5.60;;
37288;SDS011;23174;49.462;11.000;2022-12-07T13:24:26;5.15;;;4.75;;
37288;SDS011;23174;49.462;11.000;2022-12-07T13:28:35;7.70;;;5.80;;
37288;SDS011;23174;49.462;11.000;2022-12-07T13:30:45;6.07;;;5.50;;
37288;SDS011;23174;49.462;11.000;2022-12-07T13:32:51;4.93;;;4.60;;
37288;SDS011;23174;49.462;11.000;2022-12-07T13:34:53;5.57;;;5.00;;
37288;SDS011;23174;49.462;11.000;2022-12-07T13:36:53;4.85;;;4.45;;
37288;SDS011;23174;49.462;11.000;2022-12-07T13:38:56;5.97;;;5.47;;
37288;SDS011;23174;49.462;11.000;2022-12-07T13:43:15;5.20;;;4.80;;
37288;SDS011;23174;49.462;11.000;2022-12-07T13:45:21;5.55;;;5.05;;
37288;SDS011;23174;49.462;11.000;2022-12-07T13:49:56;5.20;;;4.80;;
37288;SDS011;23174;49.462;11.000;2022-12-07T13:52:13;4.70;;;4.35;;
37288;SDS011;23174;49.462;11.000;2022-12-07T13:54:23;4.60;;;4.22;;
37288;SDS011;23174;49.462;11.000;2022-12-07T13:56:26;5.30;;;4.80;;